Estación Meteorológica Peña el Pijo (Robertgarden) [ 07/19/18 09:40:39 CEST ]

Fecha Hora Presion(HPa) Temp (°C) Humedad % Rocio (°C) Viento ( m/s) Direccion Lluvia 1Hora(mm) Lluvia 24H(mm) LLuvia Total(mm)
2017-Dec-24 01:01:43 1021.800 2.4 84 -0.1         21.23
2017-Dec-24 02:01:43 1021.100 1.6 84 -0.9         21.23
2017-Dec-24 03:10:12 1020.700 0.9 85 -1.4         21.23
2017-Dec-24 04:01:43 1020.600 -0.1 85 -2.3         21.23
2017-Dec-24 05:01:44 1020.500 -0.7 86 -2.7         21.23
2017-Dec-24 06:01:44 1020.400 -1.2 86 -3.2         21.23
2017-Dec-24 07:01:32 1020.700 -1.9 87 -3.8         21.23
2017-Dec-24 08:01:37 1020.800 -1.6 87 -3.5         21.23
2017-Dec-24 09:01:35 1020.700 -0.8 88 -2.5         21.23
2017-Dec-24 10:01:32 1020.600 2.5 89 0.8         21.23
2017-Dec-24 11:01:33 1020.600 7.5 87 5.5         21.23
2017-Dec-24 12:01:32 1019.900 10.8 70 5.6         21.23
2017-Dec-24 13:01:28 1018.800 12.1 57 3.8         21.23
2017-Dec-24 14:02:02 1018.000 13.9 49 3.4         21.23
2017-Dec-24 15:01:24 1017.100 13.9 48 3.1 0.9 WNW     21.23
2017-Dec-24 16:01:52 1017.000 13.2 49 2.7         21.23
2017-Dec-24 17:01:50 1016.700 9.6 59 2.0         21.23
2017-Dec-24 18:01:52 1016.900 7.6 64 1.2 2.0 NE     21.23
2017-Dec-24 19:01:54 1017.100 4.8 68 -0.6         21.23
2017-Dec-24 20:01:44 1017.400 1.6 73 -2.8         21.23
2017-Dec-24 21:01:55 1017.100 -0.1 76 -3.8         21.23
2017-Dec-24 22:01:45 1017.100 -0.4 79 -3.6         21.23
2017-Dec-24 23:01:45 1017.000 -1.1 81 -3.9         21.23

Temperatura Máxima:13°    Temperatura Mínima:-1°
Presión Máxima:1021.800 Hpa    Presión Mínima:1016.700 Hpa


Volver